sensor_id;sensor_type;location;lat;lon;timestamp;temperature;humidity
18173;DHT22;9211;48.818;9.312;2023-05-07T00:00:48;15.20;99.90
18173;DHT22;9211;48.818;9.312;2023-05-07T00:03:16;15.10;99.90
18173;DHT22;9211;48.818;9.312;2023-05-07T00:05:44;15.10;99.90
18173;DHT22;9211;48.818;9.312;2023-05-07T00:08:12;15.10;99.90
18173;DHT22;9211;48.818;9.312;2023-05-07T00:10:39;15.00;99.90
18173;DHT22;9211;48.818;9.312;2023-05-07T00:13:06;15.10;99.90
18173;DHT22;9211;48.818;9.312;2023-05-07T00:15:34;14.90;99.90
18173;DHT22;9211;48.818;9.312;2023-05-07T00:18:01;14.80;99.90
18173;DHT22;9211;48.818;9.312;2023-05-07T00:20:28;14.80;99.90
18173;DHT22;9211;48.818;9.312;2023-05-07T00:22:55;14.90;99.90
18173;DHT22;9211;48.818;9.312;2023-05-07T00:25:22;15.00;99.90
18173;DHT22;9211;48.818;9.312;2023-05-07T00:27:49;15.00;99.90
18173;DHT22;9211;48.818;9.312;2023-05-07T00:30:16;15.10;99.90
18173;DHT22;9211;48.818;9.312;2023-05-07T00:32:44;15.00;99.90
18173;DHT22;9211;48.818;9.312;2023-05-07T00:35:11;15.10;99.90
18173;DHT22;9211;48.818;9.312;2023-05-07T00:37:38;14.90;99.90
18173;DHT22;9211;48.818;9.312;2023-05-07T00:40:07;14.80;99.90
18173;DHT22;9211;48.818;9.312;2023-05-07T00:42:34;14.60;99.90
18173;DHT22;9211;48.818;9.312;2023-05-07T00:45:01;14.40;99.90
18173;DHT22;9211;48.818;9.312;2023-05-07T00:47:28;14.50;99.90
18173;DHT22;9211;48.818;9.312;2023-05-07T00:49:57;14.60;99.90
18173;DHT22;9211;48.818;9.312;2023-05-07T00:52:25;14.70;99.90
18173;DHT22;9211;48.818;9.312;2023-05-07T00:54:53;14.70;99.90
18173;DHT22;9211;48.818;9.312;2023-05-07T00:57:21;14.70;99.90
18173;DHT22;9211;48.818;9.312;2023-05-07T00:59:48;14.60;99.90
18173;DHT22;9211;48.818;9.312;2023-05-07T01:02:17;14.50;99.90
18173;DHT22;9211;48.818;9.312;2023-05-07T01:04:44;14.60;99.90
18173;DHT22;9211;48.818;9.312;2023-05-07T01:07:12;14.60;99.90
18173;DHT22;9211;48.818;9.312;2023-05-07T01:09:40;14.70;99.90
18173;DHT22;9211;48.818;9.312;2023-05-07T01:12:07;14.70;99.90
18173;DHT22;9211;48.818;9.312;2023-05-07T01:14:35;14.80;99.90
18173;DHT22;9211;48.818;9.312;2023-05-07T01:17:02;14.70;99.90
18173;DHT22;9211;48.818;9.312;2023-05-07T01:19:30;14.60;99.90
18173;DHT22;9211;48.818;9.312;2023-05-07T01:22:02;14.60;99.90
18173;DHT22;9211;48.818;9.312;2023-05-07T01:24:34;14.60;99.90
18173;DHT22;9211;48.818;9.312;2023-05-07T01:27:04;14.60;99.90
18173;DHT22;9211;48.818;9.312;2023-05-07T01:29:34;14.70;99.90
18173;DHT22;9211;48.818;9.312;2023-05-07T01:32:02;14.70;99.90
18173;DHT22;9211;48.818;9.312;2023-05-07T01:34:32;14.50;99.90
18173;DHT22;9211;48.818;9.312;2023-05-07T01:36:59;14.40;99.90
18173;DHT22;9211;48.818;9.312;2023-05-07T01:39:29;14.50;99.90
18173;DHT22;9211;48.818;9.312;2023-05-07T01:41:59;14.40;99.90
18173;DHT22;9211;48.818;9.312;2023-05-07T01:44:27;14.30;99.90
18173;DHT22;9211;48.818;9.312;2023-05-07T01:46:54;14.10;99.90
18173;DHT22;9211;48.818;9.312;2023-05-07T01:49:22;14.10;99.90
18173;DHT22;9211;48.818;9.312;2023-05-07T01:51:49;14.10;99.90
18173;DHT22;9211;48.818;9.312;2023-05-07T01:54:16;14.10;99.90
18173;DHT22;9211;48.818;9.312;2023-05-07T01:56:43;14.10;99.90
18173;DHT22;9211;48.818;9.312;2023-05-07T01:59:12;14.20;99.90
18173;DHT22;9211;48.818;9.312;2023-05-07T02:01:39;14.00;99.90
18173;DHT22;9211;48.818;9.312;2023-05-07T02:04:06;13.90;99.90
18173;DHT22;9211;48.818;9.312;2023-05-07T02:06:35;13.80;99.90
18173;DHT22;9211;48.818;9.312;2023-05-07T02:09:04;13.80;99.90
18173;DHT22;9211;48.818;9.312;2023-05-07T02:11:31;13.70;99.90
18173;DHT22;9211;48.818;9.312;2023-05-07T02:13:58;13.70;99.90
18173;DHT22;9211;48.818;9.312;2023-05-07T02:16:26;13.90;99.90
18173;DHT22;9211;48.818;9.312;2023-05-07T02:18:53;14.00;99.90
18173;DHT22;9211;48.818;9.312;2023-05-07T02:21:21;14.00;99.90
18173;DHT22;9211;48.818;9.312;2023-05-07T02:23:48;13.90;99.90
18173;DHT22;9211;48.818;9.312;2023-05-07T02:26:14;13.80;99.90
18173;DHT22;9211;48.818;9.312;2023-05-07T02:28:41;13.80;99.90
18173;DHT22;9211;48.818;9.312;2023-05-07T02:31:09;13.70;99.90
18173;DHT22;9211;48.818;9.312;2023-05-07T02:33:38;13.70;99.90
18173;DHT22;9211;48.818;9.312;2023-05-07T02:36:07;13.80;99.90
18173;DHT22;9211;48.818;9.312;2023-05-07T02:38:36;13.80;99.90
18173;DHT22;9211;48.818;9.312;2023-05-07T02:41:04;13.60;99.90
18173;DHT22;9211;48.818;9.312;2023-05-07T02:43:31;13.60;99.90
18173;DHT22;9211;48.818;9.312;2023-05-07T02:46:02;13.40;99.90
18173;DHT22;9211;48.818;9.312;2023-05-07T02:48:29;13.40;99.90
18173;DHT22;9211;48.818;9.312;2023-05-07T02:50:57;13.30;99.90
18173;DHT22;9211;48.818;9.312;2023-05-07T02:53:25;13.50;99.90
18173;DHT22;9211;48.818;9.312;2023-05-07T02:55:52;13.50;99.90
18173;DHT22;9211;48.818;9.312;2023-05-07T02:58:19;13.40;99.90
18173;DHT22;9211;48.818;9.312;2023-05-07T03:00:46;13.40;99.90
18173;DHT22;9211;48.818;9.312;2023-05-07T03:03:28;13.30;99.90
18173;DHT22;9211;48.818;9.312;2023-05-07T03:05:55;13.20;99.90
18173;DHT22;9211;48.818;9.312;2023-05-07T03:08:23;13.30;99.90
18173;DHT22;9211;48.818;9.312;2023-05-07T03:10:50;13.20;99.90
18173;DHT22;9211;48.818;9.312;2023-05-07T03:13:17;13.20;99.90
18173;DHT22;9211;48.818;9.312;2023-05-07T03:15:45;13.20;99.90
18173;DHT22;9211;48.818;9.312;2023-05-07T03:18:12;13.30;99.90
18173;DHT22;9211;48.818;9.312;2023-05-07T03:20:39;13.30;99.90
18173;DHT22;9211;48.818;9.312;2023-05-07T03:23:06;13.30;99.90
18173;DHT22;9211;48.818;9.312;2023-05-07T03:25:34;13.20;99.90
18173;DHT22;9211;48.818;9.312;2023-05-07T03:28:01;13.30;99.90
18173;DHT22;9211;48.818;9.312;2023-05-07T03:30:37;13.20;99.90
18173;DHT22;9211;48.818;9.312;2023-05-07T03:33:04;13.00;99.90
18173;DHT22;9211;48.818;9.312;2023-05-07T03:35:31;12.90;99.90
18173;DHT22;9211;48.818;9.312;2023-05-07T03:37:59;12.90;99.90
18173;DHT22;9211;48.818;9.312;2023-05-07T03:40:29;12.80;99.90
18173;DHT22;9211;48.818;9.312;2023-05-07T03:42:57;12.90;99.90
18173;DHT22;9211;48.818;9.312;2023-05-07T03:45:27;13.00;99.90
18173;DHT22;9211;48.818;9.312;2023-05-07T03:48:05;13.00;99.90
18173;DHT22;9211;48.818;9.312;2023-05-07T03:50:32;12.90;99.90
18173;DHT22;9211;48.818;9.312;2023-05-07T03:52:59;13.00;99.90
18173;DHT22;9211;48.818;9.312;2023-05-07T03:55:28;13.00;99.90
18173;DHT22;9211;48.818;9.312;2023-05-07T03:57:59;13.00;99.90
18173;DHT22;9211;48.818;9.312;2023-05-07T04:00:27;13.00;99.90
18173;DHT22;9211;48.818;9.312;2023-05-07T04:02:59;13.00;99.90
18173;DHT22;9211;48.818;9.312;2023-05-07T04:05:29;12.90;99.90
18173;DHT22;9211;48.818;9.312;2023-05-07T04:08:01;12.90;99.90
18173;DHT22;9211;48.818;9.312;2023-05-07T04:10:37;12.90;99.90
18173;DHT22;9211;48.818;9.312;2023-05-07T04:13:09;12.90;99.90
18173;DHT22;9211;48.818;9.312;2023-05-07T04:15:37;12.90;99.90
18173;DHT22;9211;48.818;9.312;2023-05-07T04:18:07;12.80;99.90
18173;DHT22;9211;48.818;9.312;2023-05-07T04:20:35;12.90;99.90
18173;DHT22;9211;48.818;9.312;2023-05-07T04:23:05;12.80;99.90
18173;DHT22;9211;48.818;9.312;2023-05-07T04:25:33;12.80;99.90
18173;DHT22;9211;48.818;9.312;2023-05-07T04:28:09;12.70;99.90
18173;DHT22;9211;48.818;9.312;2023-05-07T04:30:38;12.80;99.90
18173;DHT22;9211;48.818;9.312;2023-05-07T04:33:07;12.80;99.90
18173;DHT22;9211;48.818;9.312;2023-05-07T04:35:35;12.80;99.90
18173;DHT22;9211;48.818;9.312;2023-05-07T04:38:04;12.80;99.90
18173;DHT22;9211;48.818;9.312;2023-05-07T04:40:31;12.70;99.90
18173;DHT22;9211;48.818;9.312;2023-05-07T04:43:00;12.80;99.90
18173;DHT22;9211;48.818;9.312;2023-05-07T04:45:32;12.90;99.90
18173;DHT22;9211;48.818;9.312;2023-05-07T04:47:59;12.90;99.90
18173;DHT22;9211;48.818;9.312;2023-05-07T04:50:26;13.00;99.90
18173;DHT22;9211;48.818;9.312;2023-05-07T04:52:58;13.10;99.90
18173;DHT22;9211;48.818;9.312;2023-05-07T04:55:25;13.20;99.90
18173;DHT22;9211;48.818;9.312;2023-05-07T04:57:53;13.20;99.90
18173;DHT22;9211;48.818;9.312;2023-05-07T05:00:20;13.20;99.90
18173;DHT22;9211;48.818;9.312;2023-05-07T05:02:52;13.20;99.90
18173;DHT22;9211;48.818;9.312;2023-05-07T05:05:21;13.20;99.90
18173;DHT22;9211;48.818;9.312;2023-05-07T05:07:51;13.30;99.90
18173;DHT22;9211;48.818;9.312;2023-05-07T05:10:19;13.30;99.90
18173;DHT22;9211;48.818;9.312;2023-05-07T05:12:46;13.30;99.90
18173;DHT22;9211;48.818;9.312;2023-05-07T05:15:14;13.40;99.90
18173;DHT22;9211;48.818;9.312;2023-05-07T05:17:41;13.30;99.90
18173;DHT22;9211;48.818;9.312;2023-05-07T05:20:10;13.30;99.90
18173;DHT22;9211;48.818;9.312;2023-05-07T05:22:39;13.30;99.90
18173;DHT22;9211;48.818;9.312;2023-05-07T05:25:07;13.40;99.90
18173;DHT22;9211;48.818;9.312;2023-05-07T05:27:34;13.40;99.90
18173;DHT22;9211;48.818;9.312;2023-05-07T05:30:02;13.50;99.90
18173;DHT22;9211;48.818;9.312;2023-05-07T05:32:31;13.50;99.90
18173;DHT22;9211;48.818;9.312;2023-05-07T05:34:59;13.50;99.90
18173;DHT22;9211;48.818;9.312;2023-05-07T05:37:27;13.60;99.90
18173;DHT22;9211;48.818;9.312;2023-05-07T05:39:56;13.60;99.90
18173;DHT22;9211;48.818;9.312;2023-05-07T05:42:25;13.60;99.90
18173;DHT22;9211;48.818;9.312;2023-05-07T05:44:52;13.70;99.90
18173;DHT22;9211;48.818;9.312;2023-05-07T05:47:19;13.80;99.90
18173;DHT22;9211;48.818;9.312;2023-05-07T05:49:47;13.90;99.90
18173;DHT22;9211;48.818;9.312;2023-05-07T05:52:15;14.10;99.90
18173;DHT22;9211;48.818;9.312;2023-05-07T05:54:45;14.10;99.90
18173;DHT22;9211;48.818;9.312;2023-05-07T05:57:12;14.20;99.90
18173;DHT22;9211;48.818;9.312;2023-05-07T05:59:39;14.30;99.90
18173;DHT22;9211;48.818;9.312;2023-05-07T06:02:06;14.30;99.90
18173;DHT22;9211;48.818;9.312;2023-05-07T06:04:33;14.30;99.90
18173;DHT22;9211;48.818;9.312;2023-05-07T06:07:01;14.40;99.90
18173;DHT22;9211;48.818;9.312;2023-05-07T06:09:28;14.50;99.90
18173;DHT22;9211;48.818;9.312;2023-05-07T06:11:57;14.60;99.90
18173;DHT22;9211;48.818;9.312;2023-05-07T06:14:24;14.70;99.90
18173;DHT22;9211;48.818;9.312;2023-05-07T06:16:54;14.90;99.90
18173;DHT22;9211;48.818;9.312;2023-05-07T06:19:21;15.00;99.90
18173;DHT22;9211;48.818;9.312;2023-05-07T06:21:50;15.10;99.90
18173;DHT22;9211;48.818;9.312;2023-05-07T06:24:17;15.20;99.90
18173;DHT22;9211;48.818;9.312;2023-05-07T06:26:44;15.30;99.90
18173;DHT22;9211;48.818;9.312;2023-05-07T06:29:14;15.30;99.90
18173;DHT22;9211;48.818;9.312;2023-05-07T06:31:42;15.40;99.90
18173;DHT22;9211;48.818;9.312;2023-05-07T06:34:10;15.40;99.90
18173;DHT22;9211;48.818;9.312;2023-05-07T06:36:40;15.40;99.90
18173;DHT22;9211;48.818;9.312;2023-05-07T06:39:29;15.50;99.90
18173;DHT22;9211;48.818;9.312;2023-05-07T06:41:56;15.50;99.90
18173;DHT22;9211;48.818;9.312;2023-05-07T06:44:28;15.60;99.90
18173;DHT22;9211;48.818;9.312;2023-05-07T06:47:07;15.60;99.90
18173;DHT22;9211;48.818;9.312;2023-05-07T06:49:35;15.60;99.90
18173;DHT22;9211;48.818;9.312;2023-05-07T06:52:03;15.70;99.90
18173;DHT22;9211;48.818;9.312;2023-05-07T06:54:30;15.70;99.90
18173;DHT22;9211;48.818;9.312;2023-05-07T06:56:57;15.70;99.90
18173;DHT22;9211;48.818;9.312;2023-05-07T06:59:26;15.80;99.90
18173;DHT22;9211;48.818;9.312;2023-05-07T07:01:55;15.90;99.90
18173;DHT22;9211;48.818;9.312;2023-05-07T07:04:23;15.90;99.90
18173;DHT22;9211;48.818;9.312;2023-05-07T07:06:58;16.00;99.90
18173;DHT22;9211;48.818;9.312;2023-05-07T07:09:25;16.10;99.90
18173;DHT22;9211;48.818;9.312;2023-05-07T07:11:53;16.20;99.90
18173;DHT22;9211;48.818;9.312;2023-05-07T07:14:21;16.20;99.90
18173;DHT22;9211;48.818;9.312;2023-05-07T07:16:50;16.30;99.90
18173;DHT22;9211;48.818;9.312;2023-05-07T07:19:20;16.40;99.90
18173;DHT22;9211;48.818;9.312;2023-05-07T07:21:50;16.50;99.90
18173;DHT22;9211;48.818;9.312;2023-05-07T07:24:17;16.70;99.90
18173;DHT22;9211;48.818;9.312;2023-05-07T07:26:48;16.80;99.90
18173;DHT22;9211;48.818;9.312;2023-05-07T07:29:15;17.00;99.90
18173;DHT22;9211;48.818;9.312;2023-05-07T07:31:44;17.20;99.90
18173;DHT22;9211;48.818;9.312;2023-05-07T07:34:12;17.30;99.90
18173;DHT22;9211;48.818;9.312;2023-05-07T07:36:40;17.40;99.90
18173;DHT22;9211;48.818;9.312;2023-05-07T07:39:08;17.50;99.90
18173;DHT22;9211;48.818;9.312;2023-05-07T07:41:36;17.70;99.90
18173;DHT22;9211;48.818;9.312;2023-05-07T07:44:03;17.90;99.90
18173;DHT22;9211;48.818;9.312;2023-05-07T07:46:35;18.00;99.90
18173;DHT22;9211;48.818;9.312;2023-05-07T07:49:03;18.20;99.90
18173;DHT22;9211;48.818;9.312;2023-05-07T07:51:30;18.40;99.90
18173;DHT22;9211;48.818;9.312;2023-05-07T07:54:00;18.60;99.90
18173;DHT22;9211;48.818;9.312;2023-05-07T07:56:28;18.80;99.90
18173;DHT22;9211;48.818;9.312;2023-05-07T07:58:56;19.00;99.90
18173;DHT22;9211;48.818;9.312;2023-05-07T08:01:23;19.00;99.90
18173;DHT22;9211;48.818;9.312;2023-05-07T08:03:50;19.10;99.90
18173;DHT22;9211;48.818;9.312;2023-05-07T08:06:18;19.20;99.90
18173;DHT22;9211;48.818;9.312;2023-05-07T08:08:45;19.40;99.90
18173;DHT22;9211;48.818;9.312;2023-05-07T08:11:13;19.40;99.90
18173;DHT22;9211;48.818;9.312;2023-05-07T08:13:40;19.50;99.90
18173;DHT22;9211;48.818;9.312;2023-05-07T08:16:07;19.60;99.90
18173;DHT22;9211;48.818;9.312;2023-05-07T08:18:35;19.80;99.90
18173;DHT22;9211;48.818;9.312;2023-05-07T08:21:03;19.90;99.90
18173;DHT22;9211;48.818;9.312;2023-05-07T08:23:31;20.00;99.90
18173;DHT22;9211;48.818;9.312;2023-05-07T08:26:00;20.20;99.90
18173;DHT22;9211;48.818;9.312;2023-05-07T08:28:29;20.20;99.90
18173;DHT22;9211;48.818;9.312;2023-05-07T08:30:56;20.40;99.90
18173;DHT22;9211;48.818;9.312;2023-05-07T08:33:27;20.50;99.90
18173;DHT22;9211;48.818;9.312;2023-05-07T08:35:54;20.50;99.90
18173;DHT22;9211;48.818;9.312;2023-05-07T08:38:21;20.60;99.90
18173;DHT22;9211;48.818;9.312;2023-05-07T08:40:48;20.70;99.90
18173;DHT22;9211;48.818;9.312;2023-05-07T08:43:19;20.70;99.90
18173;DHT22;9211;48.818;9.312;2023-05-07T08:45:49;20.70;99.90
18173;DHT22;9211;48.818;9.312;2023-05-07T08:48:23;20.70;99.90
18173;DHT22;9211;48.818;9.312;2023-05-07T08:51:03;20.70;99.90
18173;DHT22;9211;48.818;9.312;2023-05-07T08:53:31;20.60;99.90
18173;DHT22;9211;48.818;9.312;2023-05-07T08:55:59;20.60;99.90
18173;DHT22;9211;48.818;9.312;2023-05-07T08:58:28;20.60;99.90
18173;DHT22;9211;48.818;9.312;2023-05-07T09:00:57;20.60;99.90
18173;DHT22;9211;48.818;9.312;2023-05-07T09:03:25;20.60;99.90
18173;DHT22;9211;48.818;9.312;2023-05-07T09:05:54;20.70;99.90
18173;DHT22;9211;48.818;9.312;2023-05-07T09:08:25;20.70;99.90
18173;DHT22;9211;48.818;9.312;2023-05-07T09:11:06;20.80;99.90
18173;DHT22;9211;48.818;9.312;2023-05-07T09:13:39;20.90;99.90
18173;DHT22;9211;48.818;9.312;2023-05-07T09:16:12;21.00;99.90
18173;DHT22;9211;48.818;9.312;2023-05-07T09:18:42;21.20;99.90
18173;DHT22;9211;48.818;9.312;2023-05-07T09:21:11;21.20;99.90
18173;DHT22;9211;48.818;9.312;2023-05-07T09:23:38;21.20;99.90
18173;DHT22;9211;48.818;9.312;2023-05-07T09:26:07;21.30;99.90
18173;DHT22;9211;48.818;9.312;2023-05-07T09:28:39;21.40;99.90
18173;DHT22;9211;48.818;9.312;2023-05-07T09:31:09;21.40;99.90
18173;DHT22;9211;48.818;9.312;2023-05-07T09:33:37;21.40;99.90
18173;DHT22;9211;48.818;9.312;2023-05-07T09:36:06;21.40;99.90
18173;DHT22;9211;48.818;9.312;2023-05-07T09:38:36;21.50;99.90
18173;DHT22;9211;48.818;9.312;2023-05-07T09:41:04;21.60;99.90
18173;DHT22;9211;48.818;9.312;2023-05-07T09:43:37;21.70;99.90
18173;DHT22;9211;48.818;9.312;2023-05-07T09:46:12;21.70;99.90
18173;DHT22;9211;48.818;9.312;2023-05-07T09:48:44;21.80;99.90
18173;DHT22;9211;48.818;9.312;2023-05-07T09:51:21;21.90;99.90
18173;DHT22;9211;48.818;9.312;2023-05-07T09:53:50;22.00;99.90
18173;DHT22;9211;48.818;9.312;2023-05-07T09:56:20;22.10;99.90
18173;DHT22;9211;48.818;9.312;2023-05-07T09:58:54;22.10;99.90
18173;DHT22;9211;48.818;9.312;2023-05-07T10:01:25;22.10;99.90
18173;DHT22;9211;48.818;9.312;2023-05-07T10:03:53;22.20;99.90
18173;DHT22;9211;48.818;9.312;2023-05-07T10:06:21;22.30;99.90
18173;DHT22;9211;48.818;9.312;2023-05-07T10:08:49;22.40;99.90
18173;DHT22;9211;48.818;9.312;2023-05-07T10:11:17;22.50;99.90
18173;DHT22;9211;48.818;9.312;2023-05-07T10:13:46;22.60;99.90
18173;DHT22;9211;48.818;9.312;2023-05-07T10:16:15;22.80;99.90
18173;DHT22;9211;48.818;9.312;2023-05-07T10:18:47;22.80;99.90
18173;DHT22;9211;48.818;9.312;2023-05-07T10:21:21;23.00;99.90
18173;DHT22;9211;48.818;9.312;2023-05-07T10:23:57;23.10;99.90
18173;DHT22;9211;48.818;9.312;2023-05-07T10:26:27;23.30;99.90
18173;DHT22;9211;48.818;9.312;2023-05-07T10:28:58;23.40;99.90
18173;DHT22;9211;48.818;9.312;2023-05-07T10:34:23;23.80;99.90
18173;DHT22;9211;48.818;9.312;2023-05-07T10:36:52;24.00;99.90
18173;DHT22;9211;48.818;9.312;2023-05-07T10:39:22;24.10;99.90
18173;DHT22;9211;48.818;9.312;2023-05-07T10:41:50;24.20;99.90
18173;DHT22;9211;48.818;9.312;2023-05-07T10:44:25;24.30;99.90
18173;DHT22;9211;48.818;9.312;2023-05-07T10:47:04;24.40;99.90
18173;DHT22;9211;48.818;9.312;2023-05-07T10:49:31;24.50;99.90
18173;DHT22;9211;48.818;9.312;2023-05-07T10:52:15;24.70;99.90
18173;DHT22;9211;48.818;9.312;2023-05-07T10:55:26;24.80;99.90
18173;DHT22;9211;48.818;9.312;2023-05-07T10:58:23;25.00;99.90
18173;DHT22;9211;48.818;9.312;2023-05-07T11:00:59;25.10;99.90
18173;DHT22;9211;48.818;9.312;2023-05-07T11:03:33;25.20;99.90
18173;DHT22;9211;48.818;9.312;2023-05-07T11:06:09;25.30;99.90
18173;DHT22;9211;48.818;9.312;2023-05-07T11:09:04;25.30;99.90
18173;DHT22;9211;48.818;9.312;2023-05-07T11:11:53;25.30;99.90
18173;DHT22;9211;48.818;9.312;2023-05-07T11:14:45;25.30;99.90
18173;DHT22;9211;48.818;9.312;2023-05-07T11:17:28;25.30;99.90
18173;DHT22;9211;48.818;9.312;2023-05-07T11:20:03;25.30;99.90
18173;DHT22;9211;48.818;9.312;2023-05-07T11:22:37;25.30;99.90
18173;DHT22;9211;48.818;9.312;2023-05-07T11:25:22;25.30;99.90
18173;DHT22;9211;48.818;9.312;2023-05-07T11:28:05;25.20;99.90
18173;DHT22;9211;48.818;9.312;2023-05-07T11:30:33;25.20;99.90
18173;DHT22;9211;48.818;9.312;2023-05-07T11:33:02;25.20;99.90
18173;DHT22;9211;48.818;9.312;2023-05-07T11:35:30;25.20;99.90
18173;DHT22;9211;48.818;9.312;2023-05-07T11:37:59;25.10;99.90
18173;DHT22;9211;48.818;9.312;2023-05-07T11:40:31;25.10;99.90
18173;DHT22;9211;48.818;9.312;2023-05-07T11:43:10;25.00;99.90
18173;DHT22;9211;48.818;9.312;2023-05-07T11:45:37;24.90;99.90
18173;DHT22;9211;48.818;9.312;2023-05-07T11:48:05;24.90;99.90
18173;DHT22;9211;48.818;9.312;2023-05-07T11:50:32;24.90;99.90
18173;DHT22;9211;48.818;9.312;2023-05-07T11:53:07;24.90;99.90
18173;DHT22;9211;48.818;9.312;2023-05-07T11:55:47;25.10;99.90
18173;DHT22;9211;48.818;9.312;2023-05-07T11:58:27;25.10;99.90
18173;DHT22;9211;48.818;9.312;2023-05-07T12:00:54;25.20;99.90
18173;DHT22;9211;48.818;9.312;2023-05-07T12:03:22;25.20;99.90
18173;DHT22;9211;48.818;9.312;2023-05-07T12:05:49;25.10;99.90
18173;DHT22;9211;48.818;9.312;2023-05-07T12:08:16;24.90;99.90
18173;DHT22;9211;48.818;9.312;2023-05-07T12:10:44;24.80;99.90
18173;DHT22;9211;48.818;9.312;2023-05-07T12:13:17;24.60;99.90
18173;DHT22;9211;48.818;9.312;2023-05-07T12:15:44;24.50;99.90
18173;DHT22;9211;48.818;9.312;2023-05-07T12:18:12;24.40;99.90
18173;DHT22;9211;48.818;9.312;2023-05-07T12:20:39;24.20;99.90
18173;DHT22;9211;48.818;9.312;2023-05-07T12:23:07;24.10;99.90
18173;DHT22;9211;48.818;9.312;2023-05-07T12:25:35;24.00;99.90
18173;DHT22;9211;48.818;9.312;2023-05-07T12:28:03;23.90;99.90
18173;DHT22;9211;48.818;9.312;2023-05-07T12:30:32;23.70;99.90
18173;DHT22;9211;48.818;9.312;2023-05-07T12:32:59;23.50;99.90
18173;DHT22;9211;48.818;9.312;2023-05-07T12:35:27;23.40;99.90
18173;DHT22;9211;48.818;9.312;2023-05-07T12:37:57;23.30;99.90
18173;DHT22;9211;48.818;9.312;2023-05-07T12:40:35;23.20;99.90
18173;DHT22;9211;48.818;9.312;2023-05-07T12:43:02;23.10;99.90
18173;DHT22;9211;48.818;9.312;2023-05-07T12:45:29;23.10;99.90
18173;DHT22;9211;48.818;9.312;2023-05-07T12:48:01;22.90;99.90
18173;DHT22;9211;48.818;9.312;2023-05-07T12:50:31;22.80;99.90
18173;DHT22;9211;48.818;9.312;2023-05-07T12:52:59;22.50;99.90
18173;DHT22;9211;48.818;9.312;2023-05-07T12:55:29;22.20;99.90
18173;DHT22;9211;48.818;9.312;2023-05-07T12:57:56;22.10;99.90
18173;DHT22;9211;48.818;9.312;2023-05-07T13:00:36;21.90;99.90
18173;DHT22;9211;48.818;9.312;2023-05-07T13:03:05;21.70;99.90
18173;DHT22;9211;48.818;9.312;2023-05-07T13:05:32;21.50;99.90
18173;DHT22;9211;48.818;9.312;2023-05-07T13:08:00;21.40;99.90
18173;DHT22;9211;48.818;9.312;2023-05-07T13:10:28;21.40;99.90
18173;DHT22;9211;48.818;9.312;2023-05-07T13:12:55;21.20;99.90
18173;DHT22;9211;48.818;9.312;2023-05-07T13:15:21;21.10;99.90
18173;DHT22;9211;48.818;9.312;2023-05-07T13:17:48;21.10;99.90
18173;DHT22;9211;48.818;9.312;2023-05-07T13:20:17;20.90;99.90
18173;DHT22;9211;48.818;9.312;2023-05-07T13:22:44;20.70;99.90
18173;DHT22;9211;48.818;9.312;2023-05-07T13:25:11;20.40;99.90
18173;DHT22;9211;48.818;9.312;2023-05-07T13:27:38;20.20;99.90
18173;DHT22;9211;48.818;9.312;2023-05-07T13:30:06;20.00;99.90
18173;DHT22;9211;48.818;9.312;2023-05-07T13:32:33;19.70;99.90
18173;DHT22;9211;48.818;9.312;2023-05-07T13:35:00;19.50;99.90
18173;DHT22;9211;48.818;9.312;2023-05-07T13:37:29;19.30;99.90
18173;DHT22;9211;48.818;9.312;2023-05-07T13:39:56;19.00;99.90
18173;DHT22;9211;48.818;9.312;2023-05-07T13:42:23;18.70;99.90
18173;DHT22;9211;48.818;9.312;2023-05-07T13:44:50;18.40;99.90
18173;DHT22;9211;48.818;9.312;2023-05-07T13:47:16;18.30;99.90
18173;DHT22;9211;48.818;9.312;2023-05-07T13:49:43;18.20;99.90
18173;DHT22;9211;48.818;9.312;2023-05-07T13:52:10;18.30;99.90
18173;DHT22;9211;48.818;9.312;2023-05-07T13:54:39;18.40;99.90
18173;DHT22;9211;48.818;9.312;2023-05-07T13:57:14;18.40;99.90
18173;DHT22;9211;48.818;9.312;2023-05-07T13:59:42;18.50;99.90
18173;DHT22;9211;48.818;9.312;2023-05-07T14:02:18;18.60;99.90
18173;DHT22;9211;48.818;9.312;2023-05-07T14:04:47;18.60;99.90
18173;DHT22;9211;48.818;9.312;2023-05-07T14:07:40;18.70;99.90
18173;DHT22;9211;48.818;9.312;2023-05-07T14:10:25;18.60;99.90
18173;DHT22;9211;48.818;9.312;2023-05-07T14:12:58;18.40;99.90
18173;DHT22;9211;48.818;9.312;2023-05-07T14:15:26;18.30;99.90
18173;DHT22;9211;48.818;9.312;2023-05-07T14:17:53;18.20;99.90
18173;DHT22;9211;48.818;9.312;2023-05-07T14:20:20;18.10;99.90
18173;DHT22;9211;48.818;9.312;2023-05-07T14:22:48;18.00;99.90
18173;DHT22;9211;48.818;9.312;2023-05-07T14:25:15;17.90;99.90
18173;DHT22;9211;48.818;9.312;2023-05-07T14:27:49;17.80;99.90
18173;DHT22;9211;48.818;9.312;2023-05-07T14:30:22;17.70;99.90
18173;DHT22;9211;48.818;9.312;2023-05-07T14:33:17;17.60;99.90
18173;DHT22;9211;48.818;9.312;2023-05-07T14:35:55;17.50;99.90
18173;DHT22;9211;48.818;9.312;2023-05-07T14:38:25;17.50;99.90
18173;DHT22;9211;48.818;9.312;2023-05-07T14:41:00;17.40;99.90
18173;DHT22;9211;48.818;9.312;2023-05-07T14:43:35;17.40;99.90
18173;DHT22;9211;48.818;9.312;2023-05-07T14:46:30;17.40;99.90
18173;DHT22;9211;48.818;9.312;2023-05-07T14:49:14;17.50;99.90
18173;DHT22;9211;48.818;9.312;2023-05-07T14:51:56;17.60;99.90
18173;DHT22;9211;48.818;9.312;2023-05-07T14:54:33;17.70;99.90
18173;DHT22;9211;48.818;9.312;2023-05-07T14:57:34;17.70;99.90
18173;DHT22;9211;48.818;9.312;2023-05-07T15:00:07;17.70;99.90
18173;DHT22;9211;48.818;9.312;2023-05-07T15:05:50;17.80;99.90
18173;DHT22;9211;48.818;9.312;2023-05-07T15:08:45;17.80;99.90
18173;DHT22;9211;48.818;9.312;2023-05-07T15:11:15;17.90;99.90
18173;DHT22;9211;48.818;9.312;2023-05-07T15:14:00;18.00;99.90
18173;DHT22;9211;48.818;9.312;2023-05-07T15:16:41;18.00;99.90
18173;DHT22;9211;48.818;9.312;2023-05-07T15:19:24;17.90;99.90
18173;DHT22;9211;48.818;9.312;2023-05-07T15:21:59;17.70;99.90
18173;DHT22;9211;48.818;9.312;2023-05-07T15:24:29;17.80;99.90
18173;DHT22;9211;48.818;9.312;2023-05-07T15:27:01;17.80;99.90
18173;DHT22;9211;48.818;9.312;2023-05-07T15:29:36;17.90;99.90
18173;DHT22;9211;48.818;9.312;2023-05-07T15:32:11;17.90;99.90
18173;DHT22;9211;48.818;9.312;2023-05-07T15:34:41;17.90;99.90
18173;DHT22;9211;48.818;9.312;2023-05-07T15:37:10;17.90;99.90
18173;DHT22;9211;48.818;9.312;2023-05-07T15:39:37;17.80;99.90
18173;DHT22;9211;48.818;9.312;2023-05-07T15:42:04;17.90;99.90
18173;DHT22;9211;48.818;9.312;2023-05-07T15:44:31;17.80;99.90
18173;DHT22;9211;48.818;9.312;2023-05-07T15:47:00;17.90;99.90
18173;DHT22;9211;48.818;9.312;2023-05-07T15:49:28;18.00;99.90
18173;DHT22;9211;48.818;9.312;2023-05-07T15:52:05;17.90;99.90
18173;DHT22;9211;48.818;9.312;2023-05-07T15:54:32;17.90;99.90
18173;DHT22;9211;48.818;9.312;2023-05-07T15:56:59;17.90;99.90
18173;DHT22;9211;48.818;9.312;2023-05-07T15:59:28;18.00;99.90
18173;DHT22;9211;48.818;9.312;2023-05-07T16:01:55;18.00;99.90
18173;DHT22;9211;48.818;9.312;2023-05-07T16:04:23;18.00;99.90
18173;DHT22;9211;48.818;9.312;2023-05-07T16:06:51;18.10;99.90
18173;DHT22;9211;48.818;9.312;2023-05-07T16:09:18;18.10;99.90